createdAt,value
2018-01-29T00:00:43.354Z,1022.07
2018-01-29T00:01:43.362Z,1022.06
2018-01-29T00:02:43.390Z,1022.04
2018-01-29T00:03:43.399Z,1022.04
2018-01-29T00:04:43.417Z,1022.06
2018-01-29T00:05:43.434Z,1022.09
2018-01-29T00:06:43.449Z,1022.07
2018-01-29T00:07:43.469Z,1022.04
2018-01-29T00:08:43.490Z,1022.09
2018-01-29T00:09:43.501Z,1022.11
2018-01-29T00:10:43.531Z,1022.02
2018-01-29T00:11:43.534Z,1022.08
2018-01-29T00:12:43.554Z,1022.07
2018-01-29T00:13:43.576Z,1022.11
2018-01-29T00:14:43.588Z,1022.03
2018-01-29T00:15:43.609Z,1022.04
2018-01-29T00:16:43.622Z,1022.03
2018-01-29T00:17:43.640Z,1022.05
2018-01-29T00:18:43.655Z,1022.05
2018-01-29T00:19:43.675Z,1021.99
2018-01-29T00:20:43.687Z,1021.98
2018-01-29T00:21:43.706Z,1021.96
2018-01-29T00:22:43.723Z,1021.94
2018-01-29T00:23:43.741Z,1021.95
2018-01-29T00:24:43.760Z,1021.97
2018-01-29T00:25:43.774Z,1021.86
2018-01-29T00:26:43.821Z,1021.90
2018-01-29T00:27:43.816Z,1021.87
2018-01-29T00:28:43.831Z,1021.90
2018-01-29T00:29:43.848Z,1021.83
2018-01-29T00:30:43.862Z,1021.86
2018-01-29T00:31:43.881Z,1021.78
2018-01-29T00:32:43.895Z,1021.73
2018-01-29T00:33:43.912Z,1021.77
2018-01-29T00:34:43.932Z,1021.76
2018-01-29T00:35:43.953Z,1021.74
2018-01-29T00:36:43.967Z,1021.70
2018-01-29T00:37:43.983Z,1021.66
2018-01-29T00:38:44.001Z,1021.68
2018-01-29T00:39:44.018Z,1021.73
2018-01-29T00:40:44.033Z,1021.76
2018-01-29T00:41:44.054Z,1021.68
2018-01-29T00:42:44.069Z,1021.65
2018-01-29T00:43:44.087Z,1021.71
2018-01-29T00:44:44.100Z,1021.70
2018-01-29T00:45:44.125Z,1021.68
2018-01-29T00:46:44.132Z,1021.72
2018-01-29T00:47:44.149Z,1021.66
2018-01-29T00:48:44.177Z,1021.67
2018-01-29T00:49:44.188Z,1021.72
2018-01-29T00:50:44.209Z,1021.74
2018-01-29T00:51:44.229Z,1021.72
2018-01-29T00:52:44.246Z,1021.68
2018-01-29T00:53:44.258Z,1021.75
2018-01-29T00:54:44.273Z,1021.74
2018-01-29T00:55:44.292Z,1021.66
2018-01-29T00:56:44.307Z,1021.75
2018-01-29T00:57:44.327Z,1021.73
2018-01-29T00:58:44.338Z,1021.67
2018-01-29T00:59:44.356Z,1021.68
2018-01-29T01:00:44.378Z,1021.71
2018-01-29T01:01:44.399Z,1021.70
2018-01-29T01:02:44.412Z,1021.68
2018-01-29T01:03:44.512Z,1021.66
2018-01-29T01:04:44.444Z,1021.61
2018-01-29T01:05:44.512Z,1021.66
2018-01-29T01:06:44.484Z,1021.62
2018-01-29T01:07:44.501Z,1021.65
2018-01-29T01:08:44.511Z,1021.71
2018-01-29T01:09:44.531Z,1021.68
2018-01-29T01:10:44.544Z,1021.61
2018-01-29T01:11:44.567Z,1021.63
2018-01-29T01:12:44.579Z,1021.60
2018-01-29T01:13:44.604Z,1021.58
2018-01-29T01:14:44.615Z,1021.59
2018-01-29T01:15:44.631Z,1021.61
2018-01-29T01:16:44.661Z,1021.64
2018-01-29T01:17:44.673Z,1021.64
2018-01-29T01:18:44.681Z,1021.59
2018-01-29T01:19:44.703Z,1021.67
2018-01-29T01:20:44.714Z,1021.62
2018-01-29T01:21:44.734Z,1021.66
2018-01-29T01:22:44.754Z,1021.58
2018-01-29T01:23:44.768Z,1021.56
2018-01-29T01:24:44.787Z,1021.60
2018-01-29T01:25:44.807Z,1021.59
2018-01-29T01:26:44.821Z,1021.54
2018-01-29T01:27:44.834Z,1021.57
2018-01-29T01:28:44.856Z,1021.55
2018-01-29T01:29:44.869Z,1021.62
2018-01-29T01:30:44.891Z,1021.55
2018-01-29T01:31:44.905Z,1021.56
2018-01-29T01:32:44.924Z,1021.56
2018-01-29T01:33:44.936Z,1021.54
2018-01-29T01:34:44.957Z,1021.59
2018-01-29T01:35:44.976Z,1021.52
2018-01-29T01:36:44.991Z,1021.53
2018-01-29T01:37:45.006Z,1021.48
2018-01-29T01:38:45.025Z,1021.57
2018-01-29T01:39:45.043Z,1021.55
2018-01-29T01:40:45.060Z,1021.53
2018-01-29T01:41:45.077Z,1021.57
2018-01-29T01:42:45.097Z,1021.53
2018-01-29T01:43:45.109Z,1021.59
2018-01-29T01:44:45.124Z,1021.49
2018-01-29T01:45:45.145Z,1021.48
2018-01-29T01:46:45.157Z,1021.49
2018-01-29T01:47:45.173Z,1021.39
2018-01-29T01:48:45.192Z,1021.42
2018-01-29T01:49:45.206Z,1021.43
2018-01-29T01:50:45.232Z,1021.38
2018-01-29T01:51:45.238Z,1021.31
2018-01-29T01:52:45.261Z,1021.33
2018-01-29T01:53:45.282Z,1021.37
2018-01-29T01:54:45.290Z,1021.32
2018-01-29T01:55:45.307Z,1021.36
2018-01-29T01:56:45.330Z,1021.36
2018-01-29T01:57:45.344Z,1021.44
2018-01-29T01:58:45.361Z,1021.42
2018-01-29T01:59:45.374Z,1021.47
2018-01-29T02:00:45.395Z,1021.44
2018-01-29T02:01:45.410Z,1021.49
2018-01-29T02:02:45.429Z,1021.42
2018-01-29T02:03:45.449Z,1021.39
2018-01-29T02:04:45.466Z,1021.48
2018-01-29T02:05:45.479Z,1021.47
2018-01-29T02:06:45.495Z,1021.46
2018-01-29T02:07:45.510Z,1021.48
2018-01-29T02:08:45.530Z,1021.49
2018-01-29T02:09:45.543Z,1021.54
2018-01-29T02:10:45.563Z,1021.49
2018-01-29T02:11:45.577Z,1021.50
2018-01-29T02:12:45.596Z,1021.48
2018-01-29T02:13:45.614Z,1021.52
2018-01-29T02:14:45.627Z,1021.46
2018-01-29T02:15:45.643Z,1021.45
2018-01-29T02:16:45.668Z,1021.44
2018-01-29T02:17:45.680Z,1021.50
2018-01-29T02:18:45.697Z,1021.47
2018-01-29T02:19:45.716Z,1021.40
2018-01-29T02:20:45.737Z,1021.31
2018-01-29T02:21:45.754Z,1021.30
2018-01-29T02:22:45.767Z,1021.32
2018-01-29T02:23:45.782Z,1021.26
2018-01-29T02:24:45.795Z,1021.35
2018-01-29T02:25:45.828Z,1021.27
2018-01-29T02:26:45.889Z,1021.23
2018-01-29T02:27:45.875Z,1021.32
2018-01-29T02:28:45.867Z,1021.31
2018-01-29T02:29:45.938Z,1021.31
2018-01-29T02:30:45.914Z,1021.30
2018-01-29T02:31:45.946Z,1021.28
2018-01-29T02:32:45.962Z,1021.31
2018-01-29T02:33:45.956Z,1021.30
2018-01-29T02:34:45.975Z,1021.21
2018-01-29T02:35:45.987Z,1021.25
2018-01-29T02:36:46.032Z,1021.25
2018-01-29T02:37:46.022Z,1021.28
2018-01-29T02:38:46.041Z,1021.26
2018-01-29T02:39:46.131Z,1021.19
2018-01-29T02:40:46.104Z,1021.20
2018-01-29T02:41:46.115Z,1021.17
2018-01-29T02:42:46.152Z,1021.20
2018-01-29T02:43:46.124Z,1021.15
2018-01-29T02:44:46.146Z,1021.14
2018-01-29T02:45:46.199Z,1021.14
2018-01-29T02:46:46.290Z,1021.11
2018-01-29T02:47:46.193Z,1021.14
2018-01-29T02:48:46.248Z,1021.11
2018-01-29T02:49:46.225Z,1021.15
2018-01-29T02:50:46.243Z,1021.12
2018-01-29T02:51:46.258Z,1021.11
2018-01-29T02:52:46.279Z,1021.10
2018-01-29T02:53:46.315Z,1021.11
2018-01-29T02:54:46.314Z,1021.06
2018-01-29T02:55:46.333Z,1021.10
2018-01-29T02:56:46.349Z,1021.04
2018-01-29T02:57:46.363Z,1021.13
2018-01-29T02:58:46.390Z,1021.01
2018-01-29T02:59:46.396Z,1021.02
2018-01-29T03:00:46.419Z,1021.02
2018-01-29T03:01:46.433Z,1020.98
2018-01-29T03:02:46.452Z,1020.97
2018-01-29T03:03:46.547Z,1020.99
2018-01-29T03:04:46.486Z,1020.95
2018-01-29T03:05:46.504Z,1020.97
2018-01-29T03:06:46.518Z,1020.91
2018-01-29T03:07:46.533Z,1020.93
2018-01-29T03:08:46.608Z,1020.91
2018-01-29T03:09:46.573Z,1020.89
2018-01-29T03:10:46.590Z,1020.90
2018-01-29T03:11:46.606Z,1020.85
2018-01-29T03:12:46.621Z,1020.85
2018-01-29T03:13:46.675Z,1020.91
2018-01-29T03:14:46.662Z,1020.88
2018-01-29T03:15:46.678Z,1020.89
2018-01-29T03:16:46.690Z,1020.95
2018-01-29T03:17:46.707Z,1020.96
2018-01-29T03:18:46.730Z,1020.95
2018-01-29T03:19:46.740Z,1020.94
2018-01-29T03:20:46.761Z,1020.97
2018-01-29T03:21:46.776Z,1020.92
2018-01-29T03:22:46.788Z,1020.93
2018-01-29T03:23:46.890Z,1020.96
2018-01-29T03:24:46.825Z,1020.96
2018-01-29T03:25:46.844Z,1020.96
2018-01-29T03:26:46.863Z,1020.92
2018-01-29T03:27:46.880Z,1020.98
2018-01-29T03:28:46.896Z,1020.94
2018-01-29T03:29:46.919Z,1020.97
2018-01-29T03:30:46.930Z,1020.92
2018-01-29T03:31:46.946Z,1020.93
2018-01-29T03:32:46.968Z,1020.91
2018-01-29T03:33:46.977Z,1020.88
2018-01-29T03:34:46.999Z,1020.86
2018-01-29T03:35:47.017Z,1020.85
2018-01-29T03:36:47.032Z,1020.87
2018-01-29T03:37:47.051Z,1020.78
2018-01-29T03:38:47.063Z,1020.78
2018-01-29T03:39:47.088Z,1020.78
2018-01-29T03:40:47.098Z,1020.85
2018-01-29T03:41:47.120Z,1020.74
2018-01-29T03:42:47.130Z,1020.80
2018-01-29T03:43:47.146Z,1020.77
2018-01-29T03:44:47.180Z,1020.73
2018-01-29T03:45:47.186Z,1020.76
2018-01-29T03:46:47.204Z,1020.71
2018-01-29T03:47:47.217Z,1020.75
2018-01-29T03:48:47.234Z,1020.77
2018-01-29T03:49:47.278Z,1020.76
2018-01-29T03:50:47.267Z,1020.75
2018-01-29T03:51:47.287Z,1020.77
2018-01-29T03:52:47.350Z,1020.69
2018-01-29T03:53:47.322Z,1020.72
2018-01-29T03:54:47.336Z,1020.73
2018-01-29T03:55:47.375Z,1020.73
2018-01-29T03:56:47.364Z,1020.71
2018-01-29T03:57:47.389Z,1020.75
2018-01-29T03:58:47.401Z,1020.71
2018-01-29T03:59:47.422Z,1020.73
2018-01-29T04:00:47.440Z,1020.78
2018-01-29T04:01:47.455Z,1020.73
2018-01-29T04:02:47.468Z,1020.73
2018-01-29T04:03:47.488Z,1020.71
2018-01-29T04:04:47.508Z,1020.73
2018-01-29T04:05:47.523Z,1020.75
2018-01-29T04:06:47.533Z,1020.77
2018-01-29T04:07:47.558Z,1020.79
2018-01-29T04:08:47.570Z,1020.76
2018-01-29T04:09:47.590Z,1020.81
2018-01-29T04:10:47.605Z,1020.83
2018-01-29T04:11:47.628Z,1020.82
2018-01-29T04:12:47.640Z,1020.81
2018-01-29T04:13:47.658Z,1020.83
2018-01-29T04:14:47.671Z,1020.82
2018-01-29T04:15:47.700Z,1020.76
2018-01-29T04:16:47.708Z,1020.82
2018-01-29T04:17:47.726Z,1020.79
2018-01-29T04:18:47.740Z,1020.82
2018-01-29T04:19:47.762Z,1020.81
2018-01-29T04:20:47.780Z,1020.80
2018-01-29T04:21:47.795Z,1020.75
2018-01-29T04:22:47.809Z,1020.75
2018-01-29T04:23:47.831Z,1020.77
2018-01-29T04:24:47.845Z,1020.82
2018-01-29T04:25:47.860Z,1020.79
2018-01-29T04:26:47.887Z,1020.79
2018-01-29T04:27:47.890Z,1020.79
2018-01-29T04:28:47.910Z,1020.81
2018-01-29T04:29:47.932Z,1020.84
2018-01-29T04:30:47.943Z,1020.77
2018-01-29T04:31:47.962Z,1020.77
2018-01-29T04:32:48.014Z,1020.74
2018-01-29T04:33:48.004Z,1020.72
2018-01-29T04:34:48.018Z,1020.72
2018-01-29T04:35:48.029Z,1020.68
2018-01-29T04:36:48.053Z,1020.65
2018-01-29T04:37:48.139Z,1020.62
2018-01-29T04:38:48.081Z,1020.68
2018-01-29T04:39:48.093Z,1020.63
2018-01-29T04:40:48.120Z,1020.66
2018-01-29T04:41:48.133Z,1020.67
2018-01-29T04:42:48.153Z,1020.67
2018-01-29T04:43:48.169Z,1020.64
2018-01-29T04:44:48.184Z,1020.64
2018-01-29T04:45:48.197Z,1020.62
2018-01-29T04:46:48.219Z,1020.64
2018-01-29T04:47:48.247Z,1020.63
2018-01-29T04:48:48.254Z,1020.63
2018-01-29T04:49:48.271Z,1020.54
2018-01-29T04:50:48.282Z,1020.56
2018-01-29T04:51:48.317Z,1020.57
2018-01-29T04:52:48.321Z,1020.55
2018-01-29T04:53:48.343Z,1020.59
2018-01-29T04:54:48.352Z,1020.53
2018-01-29T04:55:48.367Z,1020.49
2018-01-29T04:56:48.390Z,1020.55
2018-01-29T04:57:48.414Z,1020.53
2018-01-29T04:58:48.420Z,1020.49
2018-01-29T04:59:48.436Z,1020.53
2018-01-29T05:00:48.454Z,1020.53
2018-01-29T05:01:48.480Z,1020.50
2018-01-29T05:02:48.502Z,1020.51
2018-01-29T05:03:48.504Z,1020.54
2018-01-29T05:04:48.520Z,1020.46
2018-01-29T05:05:48.552Z,1020.45
2018-01-29T05:06:48.557Z,1020.42
2018-01-29T05:07:48.589Z,1020.40
2018-01-29T05:08:48.595Z,1020.37
2018-01-29T05:09:48.611Z,1020.42
2018-01-29T05:10:48.634Z,1020.34
2018-01-29T05:11:48.641Z,1020.33
2018-01-29T05:12:48.663Z,1020.29
2018-01-29T05:13:48.682Z,1020.32
2018-01-29T05:14:48.723Z,1020.28
2018-01-29T05:15:48.714Z,1020.30
2018-01-29T05:16:48.733Z,1020.27
2018-01-29T05:17:48.752Z,1020.21
2018-01-29T05:18:48.760Z,1020.23
2018-01-29T05:19:48.776Z,1020.25
2018-01-29T05:20:48.796Z,1020.16
2018-01-29T05:21:48.826Z,1020.13
2018-01-29T05:22:48.832Z,1020.15
2018-01-29T05:23:48.847Z,1020.21
2018-01-29T05:24:48.890Z,1020.10
2018-01-29T05:25:48.878Z,1020.14
2018-01-29T05:26:48.896Z,1020.17
2018-01-29T05:27:48.913Z,1020.17
2018-01-29T05:28:48.930Z,1020.09
2018-01-29T05:29:48.954Z,1020.10
2018-01-29T05:30:48.971Z,1020.17
2018-01-29T05:31:48.974Z,1020.15
2018-01-29T05:32:48.995Z,1020.18
2018-01-29T05:33:49.010Z,1020.15
2018-01-29T05:34:49.028Z,1020.08
2018-01-29T05:35:49.045Z,1020.11
2018-01-29T05:36:49.061Z,1020.10
2018-01-29T05:37:49.081Z,1020.08
2018-01-29T05:38:49.093Z,1020.04
2018-01-29T05:39:49.118Z,1020.08
2018-01-29T05:40:49.129Z,1020.07
2018-01-29T05:41:49.144Z,1020.13
2018-01-29T05:42:49.161Z,1020.17
2018-01-29T05:43:49.175Z,1020.11
2018-01-29T05:44:49.197Z,1020.10
2018-01-29T05:45:49.213Z,1020.11
2018-01-29T05:46:49.228Z,1020.11
2018-01-29T05:47:49.244Z,1020.04
2018-01-29T05:48:49.263Z,1020.08
2018-01-29T05:49:49.284Z,1020.04
2018-01-29T05:50:49.295Z,1020.08
2018-01-29T05:51:49.401Z,1020.05
2018-01-29T05:52:49.326Z,1020.02
2018-01-29T05:53:49.346Z,1020.03
2018-01-29T05:54:49.364Z,1020.01
2018-01-29T05:55:49.379Z,1019.96
2018-01-29T05:56:49.395Z,1019.99
2018-01-29T05:57:49.409Z,1020.00
2018-01-29T05:58:49.430Z,1019.95
2018-01-29T05:59:49.443Z,1019.95
2018-01-29T06:00:49.461Z,1020.02
2018-01-29T06:01:49.475Z,1020.01
2018-01-29T06:02:49.491Z,1019.92
2018-01-29T06:03:49.509Z,1019.97
2018-01-29T06:04:49.523Z,1020.07
2018-01-29T06:05:49.548Z,1020.01
2018-01-29T06:06:49.558Z,1020.09
2018-01-29T06:07:49.577Z,1020.10
2018-01-29T06:08:49.620Z,1020.18
2018-01-29T06:09:49.617Z,1020.09
2018-01-29T06:10:49.630Z,1020.08
2018-01-29T06:11:49.645Z,1020.15
2018-01-29T06:12:49.666Z,1020.15
2018-01-29T06:13:49.673Z,1020.21
2018-01-29T06:14:49.689Z,1020.17
2018-01-29T06:15:49.723Z,1020.11
2018-01-29T06:16:49.728Z,1020.23
2018-01-29T06:17:49.740Z,1020.20
2018-01-29T06:18:49.787Z,1020.29
2018-01-29T06:19:49.771Z,1020.29
2018-01-29T06:20:49.792Z,1020.18
2018-01-29T06:21:49.808Z,1020.19
2018-01-29T06:22:49.825Z,1020.26
2018-01-29T06:23:49.844Z,1020.24
2018-01-29T06:24:49.859Z,1020.26
2018-01-29T06:25:49.873Z,1020.31
2018-01-29T06:26:49.888Z,1020.20
2018-01-29T06:27:49.909Z,1020.32
2018-01-29T06:28:49.976Z,1020.23
2018-01-29T06:29:49.943Z,1020.28
2018-01-29T06:30:49.954Z,1020.34
2018-01-29T06:31:49.978Z,1020.33
2018-01-29T06:32:50.001Z,1020.18
2018-01-29T06:33:50.007Z,1020.13
2018-01-29T06:34:50.023Z,1020.21
2018-01-29T06:35:50.042Z,1020.13
2018-01-29T06:36:50.056Z,1020.12
2018-01-29T06:37:50.137Z,1020.10
2018-01-29T06:38:50.091Z,1020.18
2018-01-29T06:39:50.124Z,1020.09
2018-01-29T06:40:50.120Z,1020.15
2018-01-29T06:41:50.140Z,1020.05
2018-01-29T06:42:50.158Z,1020.06
2018-01-29T06:43:50.174Z,1020.02
2018-01-29T06:44:50.189Z,1020.00
2018-01-29T06:45:50.211Z,1020.00
2018-01-29T06:46:50.224Z,1019.92
2018-01-29T06:47:50.259Z,1019.92
2018-01-29T06:48:50.268Z,1019.92
2018-01-29T06:49:50.268Z,1019.95
2018-01-29T06:50:50.294Z,1019.97
2018-01-29T06:51:50.305Z,1019.97
2018-01-29T06:52:50.333Z,1019.94
2018-01-29T06:53:50.342Z,1019.95
2018-01-29T06:54:50.355Z,1019.98
2018-01-29T06:55:50.367Z,1019.92
2018-01-29T06:56:50.413Z,1019.93
2018-01-29T06:57:50.430Z,1019.93
2018-01-29T06:58:50.416Z,1019.94
2018-01-29T06:59:50.433Z,1019.98
2018-01-29T07:00:50.449Z,1019.91
2018-01-29T07:01:50.478Z,1019.88
2018-01-29T07:02:50.484Z,1019.87
2018-01-29T07:03:50.501Z,1019.85
2018-01-29T07:04:50.518Z,1019.86
2018-01-29T07:05:50.533Z,1019.85
2018-01-29T07:06:50.555Z,1019.83
2018-01-29T07:07:50.566Z,1019.84
2018-01-29T07:08:50.587Z,1019.95
2018-01-29T07:09:50.605Z,1019.84
2018-01-29T07:10:50.624Z,1019.82
2018-01-29T07:11:50.635Z,1019.82
2018-01-29T07:12:50.650Z,1019.77
2018-01-29T07:13:50.672Z,1019.74
2018-01-29T07:14:50.686Z,1019.76
2018-01-29T07:15:50.706Z,1019.78
2018-01-29T07:16:50.715Z,1019.82
2018-01-29T07:17:50.738Z,1019.81
2018-01-29T07:18:50.750Z,1019.75
2018-01-29T07:19:50.766Z,1019.72
2018-01-29T07:20:50.789Z,1019.74
2018-01-29T07:21:50.802Z,1019.71
2018-01-29T07:22:50.816Z,1019.71
2018-01-29T07:23:50.830Z,1019.78
2018-01-29T07:24:50.853Z,1019.71
2018-01-29T07:25:50.867Z,1019.72
2018-01-29T07:26:50.883Z,1019.77
2018-01-29T07:27:50.908Z,1019.79
2018-01-29T07:28:50.919Z,1019.76
2018-01-29T07:29:50.935Z,1019.64
2018-01-29T07:30:50.952Z,1019.66
2018-01-29T07:31:50.964Z,1019.65
2018-01-29T07:32:50.983Z,1019.75
2018-01-29T07:33:51.002Z,1019.70
2018-01-29T07:34:51.013Z,1019.70
2018-01-29T07:35:51.034Z,1019.68
2018-01-29T07:36:52.835Z,1019.68
2018-01-29T07:37:51.069Z,1019.72
2018-01-29T07:38:51.089Z,1019.69
2018-01-29T07:39:51.106Z,1019.69
2018-01-29T07:40:51.118Z,1019.70
2018-01-29T07:41:51.133Z,1019.70
2018-01-29T07:42:51.150Z,1019.81
2018-01-29T07:43:51.166Z,1019.67
2018-01-29T07:44:51.189Z,1019.75
2018-01-29T07:45:51.204Z,1019.75
2018-01-29T07:46:51.215Z,1019.75
2018-01-29T07:47:51.232Z,1019.78
2018-01-29T07:48:51.250Z,1019.73
2018-01-29T07:49:51.270Z,1019.66
2018-01-29T07:50:51.279Z,1019.75
2018-01-29T07:51:51.301Z,1019.67
2018-01-29T07:52:51.314Z,1019.69
2018-01-29T07:53:51.335Z,1019.65
2018-01-29T07:54:51.346Z,1019.65
2018-01-29T07:55:51.368Z,1019.69
2018-01-29T07:56:51.384Z,1019.68
2018-01-29T07:57:51.403Z,1019.67
2018-01-29T07:58:51.419Z,1019.71
2018-01-29T07:59:51.438Z,1019.60
2018-01-29T08:00:51.457Z,1019.70
2018-01-29T08:01:51.468Z,1019.72
2018-01-29T08:02:51.479Z,1019.71
2018-01-29T08:03:51.504Z,1019.71
2018-01-29T08:04:51.520Z,1019.74
2018-01-29T08:05:51.542Z,1019.71
2018-01-29T08:06:51.548Z,1019.73
2018-01-29T08:07:51.576Z,1019.76
2018-01-29T08:08:51.587Z,1019.74
2018-01-29T08:09:51.606Z,1019.69
2018-01-29T08:10:51.625Z,1019.63
2018-01-29T08:11:51.634Z,1019.69
2018-01-29T08:12:51.651Z,1019.70
2018-01-29T08:13:51.669Z,1019.71
2018-01-29T08:14:51.692Z,1019.67
2018-01-29T08:15:51.701Z,1019.66
2018-01-29T08:16:51.720Z,1019.73
2018-01-29T08:17:51.738Z,1019.59
2018-01-29T08:18:51.754Z,1019.66
2018-01-29T08:19:51.767Z,1019.64
2018-01-29T08:20:51.784Z,1019.70
2018-01-29T08:21:51.801Z,1019.64
2018-01-29T08:22:51.820Z,1019.63
2018-01-29T08:23:51.842Z,1019.71
2018-01-29T08:24:51.858Z,1019.68
2018-01-29T08:25:51.880Z,1019.60
2018-01-29T08:26:51.885Z,1019.63
2018-01-29T08:27:51.909Z,1019.71
2018-01-29T08:28:51.919Z,1019.67
2018-01-29T08:29:51.946Z,1019.70
2018-01-29T08:30:51.955Z,1019.59
2018-01-29T08:31:51.988Z,1019.67
2018-01-29T08:32:51.987Z,1019.57
2018-01-29T08:33:52.009Z,1019.60
2018-01-29T08:34:52.025Z,1019.64
2018-01-29T08:35:52.069Z,1019.57
2018-01-29T08:36:52.064Z,1019.53
2018-01-29T08:37:52.074Z,1019.58
2018-01-29T08:38:52.088Z,1019.54
2018-01-29T08:39:52.109Z,1019.55
2018-01-29T08:40:52.125Z,1019.56
2018-01-29T08:41:52.142Z,1019.52
2018-01-29T08:42:52.159Z,1019.53
2018-01-29T08:43:52.194Z,1019.53
2018-01-29T08:44:52.193Z,1019.44
2018-01-29T08:45:52.208Z,1019.47
2018-01-29T08:46:52.224Z,1019.47
2018-01-29T08:47:52.249Z,1019.44
2018-01-29T08:48:52.257Z,1019.43
2018-01-29T08:49:52.276Z,1019.46
2018-01-29T08:50:52.291Z,1019.39
2018-01-29T08:51:52.309Z,1019.34
2018-01-29T08:52:52.324Z,1019.33
2018-01-29T08:53:52.349Z,1019.36
2018-01-29T08:54:52.359Z,1019.30
2018-01-29T08:55:52.436Z,1019.35
2018-01-29T08:56:52.396Z,1019.28
2018-01-29T08:57:52.413Z,1019.30
2018-01-29T08:58:52.433Z,1019.28
2018-01-29T08:59:52.442Z,1019.23
2018-01-29T09:00:52.484Z,1019.28
2018-01-29T09:01:52.481Z,1019.27
2018-01-29T09:02:52.545Z,1019.27
2018-01-29T09:03:52.514Z,1019.25
2018-01-29T09:04:52.527Z,1019.09
2018-01-29T09:05:52.543Z,1019.27
2018-01-29T09:06:52.562Z,1019.23
2018-01-29T09:07:52.579Z,1019.21
2018-01-29T09:08:52.619Z,1019.13
2018-01-29T09:09:52.616Z,1019.13
2018-01-29T09:10:52.629Z,1019.10
2018-01-29T09:11:52.644Z,1019.15
2018-01-29T09:12:52.671Z,1019.14
2018-01-29T09:13:52.683Z,1019.13
2018-01-29T09:14:52.698Z,1019.05
2018-01-29T09:15:52.720Z,1019.11
2018-01-29T09:16:52.732Z,1018.93
2018-01-29T09:17:52.749Z,1019.01
2018-01-29T09:18:52.766Z,1019.02
2018-01-29T09:19:52.788Z,1019.01
2018-01-29T09:20:52.892Z,1019.05
2018-01-29T09:21:52.815Z,1019.00
2018-01-29T09:22:52.832Z,1018.97
2018-01-29T09:23:52.856Z,1019.01
2018-01-29T09:24:52.866Z,1018.98
2018-01-29T09:25:52.886Z,1019.04
2018-01-29T09:26:52.905Z,1019.03
2018-01-29T09:27:52.921Z,1018.97
2018-01-29T09:28:52.929Z,1018.96
2018-01-29T09:29:52.955Z,1019.05
2018-01-29T09:30:52.966Z,1018.92
2018-01-29T09:31:52.979Z,1018.94
2018-01-29T09:32:52.999Z,1018.97
2018-01-29T09:33:53.015Z,1018.95
2018-01-29T09:34:53.035Z,1018.89
2018-01-29T09:35:53.050Z,1018.99
2018-01-29T09:36:53.066Z,1018.87
2018-01-29T09:37:53.083Z,1018.83
2018-01-29T09:38:53.098Z,1018.72
2018-01-29T09:39:53.125Z,1018.82
2018-01-29T09:40:53.131Z,1018.83
2018-01-29T09:41:53.151Z,1018.81
2018-01-29T09:42:53.164Z,1018.78
2018-01-29T09:43:53.181Z,1018.89
2018-01-29T09:44:53.201Z,1018.84
2018-01-29T09:45:53.253Z,1018.86
2018-01-29T09:46:53.229Z,1018.88
2018-01-29T09:47:53.254Z,1018.84
2018-01-29T09:48:53.269Z,1018.83
2018-01-29T09:49:53.289Z,1018.84
2018-01-29T09:50:53.303Z,1018.91
2018-01-29T09:51:54.869Z,1018.88
2018-01-29T09:52:53.338Z,1018.91
2018-01-29T09:53:53.352Z,1018.89
2018-01-29T09:54:53.370Z,1018.95
2018-01-29T09:55:53.383Z,1018.96
2018-01-29T09:56:53.407Z,1018.89
2018-01-29T09:57:53.423Z,1019.03
2018-01-29T09:58:53.439Z,1018.89
2018-01-29T09:59:53.458Z,1018.85
2018-01-29T10:00:53.477Z,1018.94
2018-01-29T10:01:53.488Z,1018.88
2018-01-29T10:02:53.512Z,1018.91
2018-01-29T10:03:53.530Z,1018.92
2018-01-29T10:04:53.545Z,1018.89
2018-01-29T10:05:53.564Z,1018.86
2018-01-29T10:06:53.578Z,1019.00
2018-01-29T10:07:53.595Z,1018.87
2018-01-29T10:08:53.619Z,1018.96
2018-01-29T10:09:53.652Z,1018.90
2018-01-29T10:10:53.649Z,1018.93
2018-01-29T10:11:53.667Z,1018.96
2018-01-29T10:12:53.683Z,1018.96
2018-01-29T10:13:53.699Z,1018.99
2018-01-29T10:14:53.720Z,1018.92
2018-01-29T10:15:53.737Z,1019.04
2018-01-29T10:16:53.753Z,1019.04
2018-01-29T10:17:53.768Z,1018.98
2018-01-29T10:18:53.788Z,1018.92
2018-01-29T10:19:53.802Z,1018.98
2018-01-29T10:20:53.827Z,1019.00
2018-01-29T10:21:53.838Z,1018.95
2018-01-29T10:22:53.856Z,1018.90
2018-01-29T10:23:53.874Z,1018.91
2018-01-29T10:24:53.888Z,1018.88
2018-01-29T10:25:53.908Z,1018.95
2018-01-29T10:26:53.925Z,1018.87
2018-01-29T10:27:53.942Z,1018.94
2018-01-29T10:28:53.961Z,1018.84
2018-01-29T10:29:53.979Z,1018.73
2018-01-29T10:30:53.991Z,1018.75
2018-01-29T10:31:54.016Z,1018.76
2018-01-29T10:32:54.027Z,1018.76
2018-01-29T10:33:54.046Z,1018.69
2018-01-29T10:34:54.116Z,1018.64
2018-01-29T10:35:54.082Z,1018.67
2018-01-29T10:36:54.097Z,1018.55
2018-01-29T10:37:54.113Z,1018.63
2018-01-29T10:38:54.134Z,1018.67
2018-01-29T10:39:54.157Z,1018.52
2018-01-29T10:40:54.175Z,1018.56
2018-01-29T10:41:54.185Z,1018.51
2018-01-29T10:42:54.204Z,1018.58
2018-01-29T10:43:54.218Z,1018.51
2018-01-29T10:44:54.239Z,1018.51
2018-01-29T10:45:54.253Z,1018.56
2018-01-29T10:46:54.270Z,1018.42
2018-01-29T10:47:54.287Z,1018.50
2018-01-29T10:48:54.306Z,1018.45
2018-01-29T10:49:54.326Z,1018.48
2018-01-29T10:50:54.342Z,1018.48
2018-01-29T10:51:54.363Z,1018.40
2018-01-29T10:52:54.382Z,1018.45
2018-01-29T10:53:54.396Z,1018.53
2018-01-29T10:54:54.409Z,1018.46
2018-01-29T10:55:54.432Z,1018.46
2018-01-29T10:56:54.445Z,1018.48
2018-01-29T10:57:54.467Z,1018.36
2018-01-29T10:58:54.486Z,1018.36
2018-01-29T10:59:54.498Z,1018.41
2018-01-29T11:00:54.517Z,1018.27
2018-01-29T11:01:54.536Z,1018.25
2018-01-29T11:02:54.554Z,1018.21
2018-01-29T11:03:54.579Z,1018.19
2018-01-29T11:04:54.586Z,1018.15
2018-01-29T11:05:54.604Z,1018.11
2018-01-29T11:06:54.622Z,1018.07
2018-01-29T11:07:54.634Z,1018.03
2018-01-29T11:08:54.662Z,1018.20
2018-01-29T11:09:54.673Z,1018.04
2018-01-29T11:10:54.701Z,1018.06
2018-01-29T11:11:54.704Z,1018.02
2018-01-29T11:12:54.728Z,1018.08
2018-01-29T11:13:54.745Z,1018.13
2018-01-29T11:14:54.759Z,1018.09
2018-01-29T11:15:54.779Z,1018.00
2018-01-29T11:16:54.796Z,1017.91
2018-01-29T11:17:54.812Z,1017.96
2018-01-29T11:18:54.839Z,1018.06
2018-01-29T11:19:54.848Z,1017.87
2018-01-29T11:20:54.863Z,1017.96
2018-01-29T11:21:54.886Z,1017.97
2018-01-29T11:22:54.901Z,1018.01
2018-01-29T11:23:54.918Z,1017.87
2018-01-29T11:24:55.030Z,1017.88
2018-01-29T11:25:54.952Z,1017.94
2018-01-29T11:26:54.972Z,1017.90
2018-01-29T11:27:54.993Z,1017.87
2018-01-29T11:28:55.004Z,1017.86
2018-01-29T11:29:55.019Z,1017.89
2018-01-29T11:30:55.038Z,1017.92
2018-01-29T11:31:55.056Z,1017.80
2018-01-29T11:32:55.073Z,1017.87
2018-01-29T11:33:55.087Z,1017.89
2018-01-29T11:34:55.116Z,1017.83
2018-01-29T11:35:55.131Z,1017.91
2018-01-29T11:36:55.141Z,1017.76
2018-01-29T11:37:55.162Z,1017.74
2018-01-29T11:38:55.180Z,1017.77
2018-01-29T11:39:55.198Z,1017.74
2018-01-29T11:40:55.222Z,1017.72
2018-01-29T11:41:55.230Z,1017.74
2018-01-29T11:42:55.243Z,1017.73
2018-01-29T11:43:55.269Z,1017.81
2018-01-29T11:44:55.282Z,1017.79
2018-01-29T11:45:55.299Z,1017.80
2018-01-29T11:46:55.323Z,1017.82
2018-01-29T11:47:55.329Z,1017.75
2018-01-29T11:48:55.357Z,1017.79
2018-01-29T11:49:55.371Z,1017.74
2018-01-29T11:50:55.387Z,1017.79
2018-01-29T11:51:55.402Z,1017.82
2018-01-29T11:52:55.426Z,1017.78
2018-01-29T11:53:55.514Z,1017.70
2018-01-29T11:54:55.610Z,1017.64
2018-01-29T11:55:55.471Z,1017.66
2018-01-29T11:56:55.490Z,1017.66
2018-01-29T11:57:55.503Z,1017.65
2018-01-29T11:58:55.521Z,1017.67
2018-01-29T11:59:55.545Z,1017.66
2018-01-29T12:00:55.562Z,1017.60
2018-01-29T12:01:55.649Z,1017.69
2018-01-29T12:02:55.597Z,1017.70
2018-01-29T12:03:55.612Z,1017.62
2018-01-29T12:04:55.631Z,1017.63
2018-01-29T12:05:55.646Z,1017.66